sensor_id;sensor_type;location;lat;lon;timestamp;P1;durP1;ratioP1;P2;durP2;ratioP2
77520;SDS011;66633;47.628;19.158;2023-04-25T00:00:13;6.53;;;3.30;;
77520;SDS011;66633;47.628;19.158;2023-04-25T00:02:38;5.82;;;3.28;;
77520;SDS011;66633;47.628;19.158;2023-04-25T00:05:03;5.80;;;3.00;;
77520;SDS011;66633;47.628;19.158;2023-04-25T00:07:30;5.40;;;2.53;;
77520;SDS011;66633;47.628;19.158;2023-04-25T00:09:56;5.32;;;2.55;;
77520;SDS011;66633;47.628;19.158;2023-04-25T00:12:21;5.53;;;2.60;;
77520;SDS011;66633;47.628;19.158;2023-04-25T00:14:47;6.40;;;2.92;;
77520;SDS011;66633;47.628;19.158;2023-04-25T00:17:14;5.40;;;2.50;;
77520;SDS011;66633;47.628;19.158;2023-04-25T00:19:40;6.40;;;2.70;;
77520;SDS011;66633;47.628;19.158;2023-04-25T00:22:05;5.87;;;3.00;;
77520;SDS011;66633;47.628;19.158;2023-04-25T00:24:30;5.07;;;2.60;;
77520;SDS011;66633;47.628;19.158;2023-04-25T00:26:55;5.05;;;2.60;;
77520;SDS011;66633;47.628;19.158;2023-04-25T00:29:21;5.33;;;2.40;;
77520;SDS011;66633;47.628;19.158;2023-04-25T00:31:46;5.37;;;2.13;;
77520;SDS011;66633;47.628;19.158;2023-04-25T00:34:11;4.60;;;2.43;;
77520;SDS011;66633;47.628;19.158;2023-04-25T00:36:37;4.80;;;2.23;;
77520;SDS011;66633;47.628;19.158;2023-04-25T00:39:03;5.45;;;2.22;;
77520;SDS011;66633;47.628;19.158;2023-04-25T00:41:29;5.97;;;2.35;;
77520;SDS011;66633;47.628;19.158;2023-04-25T00:43:55;5.80;;;2.15;;
77520;SDS011;66633;47.628;19.158;2023-04-25T00:46:21;3.95;;;1.92;;
77520;SDS011;66633;47.628;19.158;2023-04-25T00:48:46;4.07;;;1.90;;
77520;SDS011;66633;47.628;19.158;2023-04-25T00:51:16;3.97;;;1.80;;
77520;SDS011;66633;47.628;19.158;2023-04-25T00:53:44;4.80;;;2.08;;
77520;SDS011;66633;47.628;19.158;2023-04-25T00:56:09;6.00;;;2.30;;
77520;SDS011;66633;47.628;19.158;2023-04-25T00:58:35;6.25;;;2.20;;
77520;SDS011;66633;47.628;19.158;2023-04-25T01:01:01;4.90;;;2.05;;
77520;SDS011;66633;47.628;19.158;2023-04-25T01:03:27;6.22;;;2.22;;
77520;SDS011;66633;47.628;19.158;2023-04-25T01:05:53;4.13;;;1.98;;
77520;SDS011;66633;47.628;19.158;2023-04-25T01:08:19;5.93;;;2.30;;
77520;SDS011;66633;47.628;19.158;2023-04-25T01:10:46;4.93;;;1.95;;
77520;SDS011;66633;47.628;19.158;2023-04-25T01:13:11;6.10;;;2.10;;
77520;SDS011;66633;47.628;19.158;2023-04-25T01:15:36;5.83;;;2.40;;
77520;SDS011;66633;47.628;19.158;2023-04-25T01:18:02;4.80;;;2.30;;
77520;SDS011;66633;47.628;19.158;2023-04-25T01:20:27;4.97;;;2.40;;
77520;SDS011;66633;47.628;19.158;2023-04-25T01:22:53;5.43;;;2.25;;
77520;SDS011;66633;47.628;19.158;2023-04-25T01:25:20;5.03;;;2.58;;
77520;SDS011;66633;47.628;19.158;2023-04-25T01:27:45;7.20;;;2.67;;
77520;SDS011;66633;47.628;19.158;2023-04-25T01:30:11;5.13;;;2.40;;
77520;SDS011;66633;47.628;19.158;2023-04-25T01:32:36;7.25;;;3.10;;
77520;SDS011;66633;47.628;19.158;2023-04-25T01:35:05;5.30;;;2.60;;
77520;SDS011;66633;47.628;19.158;2023-04-25T01:37:34;6.13;;;3.13;;
77520;SDS011;66633;47.628;19.158;2023-04-25T01:40:00;5.60;;;2.70;;
77520;SDS011;66633;47.628;19.158;2023-04-25T01:42:25;5.78;;;2.70;;
77520;SDS011;66633;47.628;19.158;2023-04-25T01:44:50;6.20;;;3.20;;
77520;SDS011;66633;47.628;19.158;2023-04-25T01:47:16;6.00;;;3.10;;
77520;SDS011;66633;47.628;19.158;2023-04-25T01:49:41;6.68;;;3.40;;
77520;SDS011;66633;47.628;19.158;2023-04-25T01:52:06;6.82;;;3.47;;
77520;SDS011;66633;47.628;19.158;2023-04-25T01:54:31;6.83;;;3.33;;
77520;SDS011;66633;47.628;19.158;2023-04-25T01:56:57;6.20;;;3.05;;
77520;SDS011;66633;47.628;19.158;2023-04-25T01:59:22;6.75;;;3.63;;
77520;SDS011;66633;47.628;19.158;2023-04-25T02:01:47;7.20;;;3.17;;
77520;SDS011;66633;47.628;19.158;2023-04-25T02:04:13;5.40;;;2.93;;
77520;SDS011;66633;47.628;19.158;2023-04-25T02:06:38;5.50;;;2.97;;
77520;SDS011;66633;47.628;19.158;2023-04-25T02:09:03;7.13;;;3.10;;
77520;SDS011;66633;47.628;19.158;2023-04-25T02:11:28;5.57;;;3.13;;
77520;SDS011;66633;47.628;19.158;2023-04-25T02:13:54;6.57;;;3.08;;
77520;SDS011;66633;47.628;19.158;2023-04-25T02:16:19;6.55;;;2.80;;
77520;SDS011;66633;47.628;19.158;2023-04-25T02:18:44;5.57;;;3.08;;
77520;SDS011;66633;47.628;19.158;2023-04-25T02:21:10;5.22;;;2.55;;
77520;SDS011;66633;47.628;19.158;2023-04-25T02:23:35;6.40;;;3.22;;
77520;SDS011;66633;47.628;19.158;2023-04-25T02:26:00;6.03;;;2.75;;
77520;SDS011;66633;47.628;19.158;2023-04-25T02:28:25;5.05;;;2.60;;
77520;SDS011;66633;47.628;19.158;2023-04-25T02:30:51;4.97;;;2.60;;
77520;SDS011;66633;47.628;19.158;2023-04-25T02:33:16;4.28;;;2.03;;
77520;SDS011;66633;47.628;19.158;2023-04-25T02:35:42;4.97;;;2.70;;
77520;SDS011;66633;47.628;19.158;2023-04-25T02:38:07;4.80;;;2.20;;
77520;SDS011;66633;47.628;19.158;2023-04-25T02:40:32;5.97;;;2.60;;
77520;SDS011;66633;47.628;19.158;2023-04-25T02:42:57;5.07;;;2.20;;
77520;SDS011;66633;47.628;19.158;2023-04-25T02:45:23;5.03;;;2.40;;
77520;SDS011;66633;47.628;19.158;2023-04-25T02:47:48;5.50;;;2.30;;
77520;SDS011;66633;47.628;19.158;2023-04-25T02:50:13;4.13;;;2.17;;
77520;SDS011;66633;47.628;19.158;2023-04-25T02:52:38;4.77;;;1.90;;
77520;SDS011;66633;47.628;19.158;2023-04-25T02:55:04;5.73;;;2.00;;
77520;SDS011;66633;47.628;19.158;2023-04-25T02:57:29;3.13;;;1.40;;
77520;SDS011;66633;47.628;19.158;2023-04-25T02:59:54;3.20;;;1.63;;
77520;SDS011;66633;47.628;19.158;2023-04-25T03:02:19;3.30;;;1.47;;
77520;SDS011;66633;47.628;19.158;2023-04-25T03:04:45;3.45;;;1.40;;
77520;SDS011;66633;47.628;19.158;2023-04-25T03:07:11;3.97;;;1.50;;
77520;SDS011;66633;47.628;19.158;2023-04-25T03:09:36;4.35;;;1.70;;
77520;SDS011;66633;47.628;19.158;2023-04-25T03:12:01;3.03;;;1.50;;
77520;SDS011;66633;47.628;19.158;2023-04-25T03:14:26;4.15;;;1.75;;
77520;SDS011;66633;47.628;19.158;2023-04-25T03:16:52;4.57;;;1.70;;
77520;SDS011;66633;47.628;19.158;2023-04-25T03:19:17;4.57;;;1.83;;
77520;SDS011;66633;47.628;19.158;2023-04-25T03:21:43;4.50;;;1.73;;
77520;SDS011;66633;47.628;19.158;2023-04-25T03:24:08;4.78;;;2.33;;
77520;SDS011;66633;47.628;19.158;2023-04-25T03:26:35;6.13;;;2.10;;
77520;SDS011;66633;47.628;19.158;2023-04-25T03:29:01;5.20;;;2.00;;
77520;SDS011;66633;47.628;19.158;2023-04-25T03:31:26;4.50;;;2.03;;
77520;SDS011;66633;47.628;19.158;2023-04-25T03:33:51;3.77;;;2.00;;
77520;SDS011;66633;47.628;19.158;2023-04-25T03:36:16;4.97;;;2.20;;
77520;SDS011;66633;47.628;19.158;2023-04-25T03:38:42;5.00;;;2.03;;
77520;SDS011;66633;47.628;19.158;2023-04-25T03:41:07;5.13;;;2.22;;
77520;SDS011;66633;47.628;19.158;2023-04-25T03:43:32;3.85;;;1.70;;
77520;SDS011;66633;47.628;19.158;2023-04-25T03:45:57;4.53;;;2.07;;
77520;SDS011;66633;47.628;19.158;2023-04-25T03:48:23;3.80;;;2.08;;
77520;SDS011;66633;47.628;19.158;2023-04-25T03:50:49;5.32;;;2.10;;
77520;SDS011;66633;47.628;19.158;2023-04-25T03:53:15;4.20;;;1.90;;
77520;SDS011;66633;47.628;19.158;2023-04-25T03:55:40;3.83;;;1.93;;
77520;SDS011;66633;47.628;19.158;2023-04-25T03:58:05;4.18;;;2.00;;
77520;SDS011;66633;47.628;19.158;2023-04-25T04:00:31;4.50;;;1.90;;
77520;SDS011;66633;47.628;19.158;2023-04-25T04:02:56;3.63;;;1.50;;
77520;SDS011;66633;47.628;19.158;2023-04-25T04:05:21;5.57;;;1.73;;
77520;SDS011;66633;47.628;19.158;2023-04-25T04:07:47;3.42;;;1.60;;
77520;SDS011;66633;47.628;19.158;2023-04-25T04:10:12;4.15;;;1.50;;
77520;SDS011;66633;47.628;19.158;2023-04-25T04:12:38;3.53;;;1.70;;
77520;SDS011;66633;47.628;19.158;2023-04-25T04:15:04;5.55;;;1.80;;
77520;SDS011;66633;47.628;19.158;2023-04-25T04:17:29;3.95;;;1.50;;
77520;SDS011;66633;47.628;19.158;2023-04-25T04:19:55;4.00;;;1.50;;
77520;SDS011;66633;47.628;19.158;2023-04-25T04:22:20;4.25;;;1.77;;
77520;SDS011;66633;47.628;19.158;2023-04-25T04:24:46;3.67;;;1.73;;
77520;SDS011;66633;47.628;19.158;2023-04-25T04:27:11;3.43;;;1.57;;
77520;SDS011;66633;47.628;19.158;2023-04-25T04:29:37;3.80;;;1.92;;
77520;SDS011;66633;47.628;19.158;2023-04-25T04:32:02;4.13;;;1.87;;
77520;SDS011;66633;47.628;19.158;2023-04-25T04:34:28;4.97;;;1.87;;
77520;SDS011;66633;47.628;19.158;2023-04-25T04:36:53;4.72;;;1.80;;
77520;SDS011;66633;47.628;19.158;2023-04-25T04:39:20;3.75;;;1.60;;
77520;SDS011;66633;47.628;19.158;2023-04-25T04:41:45;3.65;;;1.88;;
77520;SDS011;66633;47.628;19.158;2023-04-25T04:44:11;4.30;;;2.10;;
77520;SDS011;66633;47.628;19.158;2023-04-25T04:46:37;4.47;;;1.98;;
77520;SDS011;66633;47.628;19.158;2023-04-25T04:49:10;3.95;;;1.77;;
77520;SDS011;66633;47.628;19.158;2023-04-25T04:51:35;4.00;;;1.83;;
77520;SDS011;66633;47.628;19.158;2023-04-25T04:54:01;4.47;;;2.20;;
77520;SDS011;66633;47.628;19.158;2023-04-25T04:56:28;4.15;;;1.70;;
77520;SDS011;66633;47.628;19.158;2023-04-25T04:58:54;4.80;;;2.33;;
77520;SDS011;66633;47.628;19.158;2023-04-25T05:01:19;4.55;;;2.20;;
77520;SDS011;66633;47.628;19.158;2023-04-25T05:03:45;4.63;;;2.03;;
77520;SDS011;66633;47.628;19.158;2023-04-25T05:06:10;3.73;;;1.80;;
77520;SDS011;66633;47.628;19.158;2023-04-25T05:08:36;5.37;;;1.90;;
77520;SDS011;66633;47.628;19.158;2023-04-25T05:11:01;4.30;;;1.90;;
77520;SDS011;66633;47.628;19.158;2023-04-25T05:13:26;4.70;;;2.20;;
77520;SDS011;66633;47.628;19.158;2023-04-25T05:15:52;4.60;;;1.98;;
77520;SDS011;66633;47.628;19.158;2023-04-25T05:18:17;3.93;;;1.80;;
77520;SDS011;66633;47.628;19.158;2023-04-25T05:20:42;4.57;;;2.03;;
77520;SDS011;66633;47.628;19.158;2023-04-25T05:23:07;3.17;;;1.65;;
77520;SDS011;66633;47.628;19.158;2023-04-25T05:25:33;4.80;;;2.20;;
77520;SDS011;66633;47.628;19.158;2023-04-25T05:27:58;4.00;;;1.73;;
77520;SDS011;66633;47.628;19.158;2023-04-25T05:30:23;4.20;;;2.05;;
77520;SDS011;66633;47.628;19.158;2023-04-25T05:32:48;3.80;;;1.67;;
77520;SDS011;66633;47.628;19.158;2023-04-25T05:35:14;4.53;;;1.83;;
77520;SDS011;66633;47.628;19.158;2023-04-25T05:37:39;4.32;;;1.80;;
77520;SDS011;66633;47.628;19.158;2023-04-25T05:40:05;4.65;;;2.10;;
77520;SDS011;66633;47.628;19.158;2023-04-25T05:42:31;4.18;;;1.60;;
77520;SDS011;66633;47.628;19.158;2023-04-25T05:44:57;3.65;;;1.70;;
77520;SDS011;66633;47.628;19.158;2023-04-25T05:47:22;4.60;;;1.90;;
77520;SDS011;66633;47.628;19.158;2023-04-25T05:49:47;4.20;;;1.90;;
77520;SDS011;66633;47.628;19.158;2023-04-25T05:52:12;3.90;;;1.90;;
77520;SDS011;66633;47.628;19.158;2023-04-25T05:54:38;4.25;;;1.90;;
77520;SDS011;66633;47.628;19.158;2023-04-25T05:57:03;4.30;;;1.47;;
77520;SDS011;66633;47.628;19.158;2023-04-25T05:59:28;3.83;;;1.60;;
77520;SDS011;66633;47.628;19.158;2023-04-25T06:01:53;3.90;;;1.70;;
77520;SDS011;66633;47.628;19.158;2023-04-25T06:04:19;4.95;;;1.90;;
77520;SDS011;66633;47.628;19.158;2023-04-25T06:06:45;3.30;;;1.73;;
77520;SDS011;66633;47.628;19.158;2023-04-25T06:09:10;5.63;;;2.13;;
77520;SDS011;66633;47.628;19.158;2023-04-25T06:11:35;3.88;;;1.63;;
77520;SDS011;66633;47.628;19.158;2023-04-25T06:14:01;3.93;;;1.70;;
77520;SDS011;66633;47.628;19.158;2023-04-25T06:16:26;3.50;;;1.60;;
77520;SDS011;66633;47.628;19.158;2023-04-25T06:18:51;5.22;;;2.00;;
77520;SDS011;66633;47.628;19.158;2023-04-25T06:21:16;3.67;;;1.63;;
77520;SDS011;66633;47.628;19.158;2023-04-25T06:23:42;3.33;;;1.80;;
77520;SDS011;66633;47.628;19.158;2023-04-25T06:26:07;4.30;;;1.90;;
77520;SDS011;66633;47.628;19.158;2023-04-25T06:28:32;6.83;;;2.40;;
77520;SDS011;66633;47.628;19.158;2023-04-25T06:30:57;6.53;;;2.70;;
77520;SDS011;66633;47.628;19.158;2023-04-25T06:33:23;4.97;;;2.30;;
77520;SDS011;66633;47.628;19.158;2023-04-25T06:35:49;4.90;;;2.20;;
77520;SDS011;66633;47.628;19.158;2023-04-25T06:38:15;24.52;;;3.05;;
77520;SDS011;66633;47.628;19.158;2023-04-25T06:40:40;4.78;;;2.15;;
77520;SDS011;66633;47.628;19.158;2023-04-25T06:43:05;6.10;;;2.65;;
77520;SDS011;66633;47.628;19.158;2023-04-25T06:45:31;5.33;;;2.50;;
77520;SDS011;66633;47.628;19.158;2023-04-25T06:47:56;5.57;;;2.50;;
77520;SDS011;66633;47.628;19.158;2023-04-25T06:50:21;6.20;;;2.90;;
77520;SDS011;66633;47.628;19.158;2023-04-25T06:52:46;6.07;;;2.90;;
77520;SDS011;66633;47.628;19.158;2023-04-25T06:55:11;5.77;;;2.80;;
77520;SDS011;66633;47.628;19.158;2023-04-25T06:57:37;5.10;;;2.63;;
77520;SDS011;66633;47.628;19.158;2023-04-25T07:00:02;5.07;;;2.47;;
77520;SDS011;66633;47.628;19.158;2023-04-25T07:02:30;6.28;;;2.90;;
77520;SDS011;66633;47.628;19.158;2023-04-25T07:04:55;9.00;;;5.10;;
77520;SDS011;66633;47.628;19.158;2023-04-25T07:07:24;5.82;;;3.05;;
77520;SDS011;66633;47.628;19.158;2023-04-25T07:09:50;5.65;;;2.67;;
77520;SDS011;66633;47.628;19.158;2023-04-25T07:12:15;4.82;;;2.60;;
77520;SDS011;66633;47.628;19.158;2023-04-25T07:14:40;6.57;;;3.93;;
77520;SDS011;66633;47.628;19.158;2023-04-25T07:17:05;6.37;;;3.50;;
77520;SDS011;66633;47.628;19.158;2023-04-25T07:19:31;5.93;;;3.30;;
77520;SDS011;66633;47.628;19.158;2023-04-25T07:21:58;5.47;;;3.25;;
77520;SDS011;66633;47.628;19.158;2023-04-25T07:24:23;5.23;;;2.93;;
77520;SDS011;66633;47.628;19.158;2023-04-25T07:26:48;6.23;;;3.30;;
77520;SDS011;66633;47.628;19.158;2023-04-25T07:29:13;6.07;;;3.17;;
77520;SDS011;66633;47.628;19.158;2023-04-25T07:31:39;5.90;;;3.28;;
77520;SDS011;66633;47.628;19.158;2023-04-25T07:34:04;5.50;;;3.00;;
77520;SDS011;66633;47.628;19.158;2023-04-25T07:36:30;6.82;;;3.60;;
77520;SDS011;66633;47.628;19.158;2023-04-25T07:38:56;6.60;;;3.72;;
77520;SDS011;66633;47.628;19.158;2023-04-25T07:41:21;7.00;;;4.07;;
77520;SDS011;66633;47.628;19.158;2023-04-25T07:43:46;7.87;;;3.60;;
77520;SDS011;66633;47.628;19.158;2023-04-25T07:46:11;6.40;;;3.93;;
77520;SDS011;66633;47.628;19.158;2023-04-25T07:48:37;6.28;;;3.80;;
77520;SDS011;66633;47.628;19.158;2023-04-25T07:51:02;7.07;;;4.20;;
77520;SDS011;66633;47.628;19.158;2023-04-25T07:53:29;6.88;;;3.78;;
77520;SDS011;66633;47.628;19.158;2023-04-25T07:55:54;12.07;;;6.23;;
77520;SDS011;66633;47.628;19.158;2023-04-25T07:58:20;7.10;;;4.35;;
77520;SDS011;66633;47.628;19.158;2023-04-25T08:00:47;6.63;;;3.65;;
77520;SDS011;66633;47.628;19.158;2023-04-25T08:03:12;7.63;;;3.75;;
77520;SDS011;66633;47.628;19.158;2023-04-25T08:05:37;6.22;;;3.42;;
77520;SDS011;66633;47.628;19.158;2023-04-25T08:08:03;7.30;;;3.72;;
77520;SDS011;66633;47.628;19.158;2023-04-25T08:10:29;6.70;;;4.10;;
77520;SDS011;66633;47.628;19.158;2023-04-25T08:12:54;8.82;;;6.05;;
77520;SDS011;66633;47.628;19.158;2023-04-25T08:15:20;8.60;;;4.00;;
77520;SDS011;66633;47.628;19.158;2023-04-25T08:17:45;6.00;;;3.03;;
77520;SDS011;66633;47.628;19.158;2023-04-25T08:20:10;5.73;;;3.23;;
77520;SDS011;66633;47.628;19.158;2023-04-25T08:22:36;6.22;;;3.00;;
77520;SDS011;66633;47.628;19.158;2023-04-25T08:25:01;5.67;;;3.03;;
77520;SDS011;66633;47.628;19.158;2023-04-25T08:27:26;5.10;;;2.93;;
77520;SDS011;66633;47.628;19.158;2023-04-25T08:29:52;6.47;;;3.38;;
77520;SDS011;66633;47.628;19.158;2023-04-25T08:32:18;6.17;;;3.50;;
77520;SDS011;66633;47.628;19.158;2023-04-25T08:34:43;6.07;;;2.67;;
77520;SDS011;66633;47.628;19.158;2023-04-25T08:37:09;7.00;;;3.42;;
77520;SDS011;66633;47.628;19.158;2023-04-25T08:39:35;5.60;;;2.65;;
77520;SDS011;66633;47.628;19.158;2023-04-25T08:42:00;5.25;;;2.88;;
77520;SDS011;66633;47.628;19.158;2023-04-25T08:44:28;5.80;;;2.40;;
77520;SDS011;66633;47.628;19.158;2023-04-25T08:46:55;5.75;;;3.40;;
77520;SDS011;66633;47.628;19.158;2023-04-25T08:49:20;6.38;;;3.05;;
77520;SDS011;66633;47.628;19.158;2023-04-25T08:51:46;4.80;;;2.50;;
77520;SDS011;66633;47.628;19.158;2023-04-25T08:54:12;5.07;;;2.60;;
77520;SDS011;66633;47.628;19.158;2023-04-25T08:56:38;5.68;;;2.97;;
77520;SDS011;66633;47.628;19.158;2023-04-25T08:59:03;7.10;;;2.42;;
77520;SDS011;66633;47.628;19.158;2023-04-25T09:01:29;5.85;;;2.88;;
77520;SDS011;66633;47.628;19.158;2023-04-25T09:03:55;6.13;;;2.50;;
77520;SDS011;66633;47.628;19.158;2023-04-25T09:06:20;6.53;;;2.92;;
77520;SDS011;66633;47.628;19.158;2023-04-25T09:08:46;4.65;;;2.67;;
77520;SDS011;66633;47.628;19.158;2023-04-25T09:11:12;4.35;;;2.20;;
77520;SDS011;66633;47.628;19.158;2023-04-25T09:13:37;4.90;;;2.67;;
77520;SDS011;66633;47.628;19.158;2023-04-25T09:16:02;6.22;;;2.97;;
77520;SDS011;66633;47.628;19.158;2023-04-25T09:18:29;5.23;;;2.23;;
77520;SDS011;66633;47.628;19.158;2023-04-25T09:20:58;4.75;;;2.30;;
77520;SDS011;66633;47.628;19.158;2023-04-25T09:23:29;5.00;;;2.30;;
77520;SDS011;66633;47.628;19.158;2023-04-25T09:25:54;5.10;;;2.33;;
77520;SDS011;66633;47.628;19.158;2023-04-25T09:28:23;4.22;;;2.15;;
77520;SDS011;66633;47.628;19.158;2023-04-25T09:30:49;5.40;;;2.38;;
77520;SDS011;66633;47.628;19.158;2023-04-25T09:33:14;5.03;;;2.43;;
77520;SDS011;66633;47.628;19.158;2023-04-25T09:35:43;4.78;;;2.00;;
77520;SDS011;66633;47.628;19.158;2023-04-25T09:38:12;4.43;;;2.03;;
77520;SDS011;66633;47.628;19.158;2023-04-25T09:40:39;4.95;;;2.42;;
77520;SDS011;66633;47.628;19.158;2023-04-25T09:43:08;5.18;;;2.28;;
77520;SDS011;66633;47.628;19.158;2023-04-25T09:45:38;3.55;;;1.60;;
77520;SDS011;66633;47.628;19.158;2023-04-25T09:48:06;4.93;;;2.30;;
77520;SDS011;66633;47.628;19.158;2023-04-25T09:50:31;5.82;;;2.60;;
77520;SDS011;66633;47.628;19.158;2023-04-25T09:53:03;3.43;;;1.90;;
77520;SDS011;66633;47.628;19.158;2023-04-25T09:55:30;3.13;;;1.60;;
77520;SDS011;66633;47.628;19.158;2023-04-25T09:57:56;4.13;;;1.27;;
77520;SDS011;66633;47.628;19.158;2023-04-25T10:00:24;4.57;;;1.92;;
77520;SDS011;66633;47.628;19.158;2023-04-25T10:02:50;3.85;;;1.38;;
77520;SDS011;66633;47.628;19.158;2023-04-25T10:05:16;2.05;;;1.27;;
77520;SDS011;66633;47.628;19.158;2023-04-25T10:07:42;2.38;;;1.30;;
77520;SDS011;66633;47.628;19.158;2023-04-25T10:10:07;3.25;;;1.30;;
77520;SDS011;66633;47.628;19.158;2023-04-25T10:12:33;2.85;;;1.40;;
77520;SDS011;66633;47.628;19.158;2023-04-25T10:14:59;2.97;;;1.40;;
77520;SDS011;66633;47.628;19.158;2023-04-25T10:17:25;3.15;;;1.13;;
77520;SDS011;66633;47.628;19.158;2023-04-25T10:19:52;2.75;;;1.15;;
77520;SDS011;66633;47.628;19.158;2023-04-25T10:22:20;2.38;;;1.10;;
77520;SDS011;66633;47.628;19.158;2023-04-25T10:24:48;1.77;;;1.00;;
77520;SDS011;66633;47.628;19.158;2023-04-25T10:27:14;1.55;;;1.00;;
77520;SDS011;66633;47.628;19.158;2023-04-25T10:29:40;1.90;;;1.10;;
77520;SDS011;66633;47.628;19.158;2023-04-25T10:32:08;2.47;;;1.20;;
77520;SDS011;66633;47.628;19.158;2023-04-25T10:37:29;4.40;;;1.50;;
77520;SDS011;66633;47.628;19.158;2023-04-25T10:39:55;4.38;;;1.35;;
77520;SDS011;66633;47.628;19.158;2023-04-25T10:42:20;3.08;;;1.10;;
77520;SDS011;66633;47.628;19.158;2023-04-25T10:45:00;2.28;;;1.00;;
77520;SDS011;66633;47.628;19.158;2023-04-25T10:47:34;1.75;;;1.00;;
77520;SDS011;66633;47.628;19.158;2023-04-25T10:50:02;2.83;;;1.20;;
77520;SDS011;66633;47.628;19.158;2023-04-25T10:52:29;2.63;;;1.10;;
77520;SDS011;66633;47.628;19.158;2023-04-25T10:54:55;2.78;;;0.90;;
77520;SDS011;66633;47.628;19.158;2023-04-25T10:59:52;2.08;;;1.02;;
77520;SDS011;66633;47.628;19.158;2023-04-25T11:02:17;3.30;;;1.17;;
77520;SDS011;66633;47.628;19.158;2023-04-25T11:04:43;1.00;;;0.75;;
77520;SDS011;66633;47.628;19.158;2023-04-25T11:09:35;1.50;;;0.90;;
77520;SDS011;66633;47.628;19.158;2023-04-25T11:12:03;0.90;;;0.80;;
77520;SDS011;66633;47.628;19.158;2023-04-25T11:14:28;1.92;;;1.10;;
77520;SDS011;66633;47.628;19.158;2023-04-25T11:16:54;2.50;;;0.90;;
77520;SDS011;66633;47.628;19.158;2023-04-25T11:19:20;3.55;;;1.00;;
77520;SDS011;66633;47.628;19.158;2023-04-25T11:21:46;3.28;;;1.10;;
77520;SDS011;66633;47.628;19.158;2023-04-25T11:24:11;1.48;;;1.00;;
77520;SDS011;66633;47.628;19.158;2023-04-25T11:26:37;0.95;;;0.80;;
77520;SDS011;66633;47.628;19.158;2023-04-25T11:29:02;1.13;;;0.80;;
77520;SDS011;66633;47.628;19.158;2023-04-25T11:31:28;1.10;;;0.70;;
77520;SDS011;66633;47.628;19.158;2023-04-25T11:33:54;1.65;;;0.88;;
77520;SDS011;66633;47.628;19.158;2023-04-25T11:36:22;2.97;;;0.98;;
77520;SDS011;66633;47.628;19.158;2023-04-25T11:38:47;1.20;;;0.80;;
77520;SDS011;66633;47.628;19.158;2023-04-25T11:41:13;1.57;;;0.80;;
77520;SDS011;66633;47.628;19.158;2023-04-25T11:43:38;2.65;;;0.90;;
77520;SDS011;66633;47.628;19.158;2023-04-25T11:46:06;0.95;;;0.80;;
77520;SDS011;66633;47.628;19.158;2023-04-25T11:48:39;2.05;;;0.90;;
77520;SDS011;66633;47.628;19.158;2023-04-25T11:51:05;1.80;;;0.95;;
77520;SDS011;66633;47.628;19.158;2023-04-25T11:53:30;1.17;;;0.80;;
77520;SDS011;66633;47.628;19.158;2023-04-25T11:55:55;0.82;;;0.80;;
77520;SDS011;66633;47.628;19.158;2023-04-25T11:58:21;0.80;;;0.80;;
77520;SDS011;66633;47.628;19.158;2023-04-25T12:00:46;1.17;;;0.90;;
77520;SDS011;66633;47.628;19.158;2023-04-25T12:03:11;1.00;;;0.70;;
77520;SDS011;66633;47.628;19.158;2023-04-25T12:05:37;0.90;;;0.70;;
77520;SDS011;66633;47.628;19.158;2023-04-25T12:08:09;1.30;;;0.90;;
77520;SDS011;66633;47.628;19.158;2023-04-25T12:10:36;1.75;;;1.00;;
77520;SDS011;66633;47.628;19.158;2023-04-25T12:13:17;1.63;;;0.80;;
77520;SDS011;66633;47.628;19.158;2023-04-25T12:15:42;2.05;;;1.20;;
77520;SDS011;66633;47.628;19.158;2023-04-25T12:18:07;1.43;;;0.90;;
77520;SDS011;66633;47.628;19.158;2023-04-25T12:20:32;1.40;;;1.00;;
77520;SDS011;66633;47.628;19.158;2023-04-25T12:22:58;3.72;;;1.08;;
77520;SDS011;66633;47.628;19.158;2023-04-25T12:25:37;2.40;;;1.00;;
77520;SDS011;66633;47.628;19.158;2023-04-25T12:28:18;1.17;;;0.77;;
77520;SDS011;66633;47.628;19.158;2023-04-25T12:33:21;2.22;;;0.90;;
77520;SDS011;66633;47.628;19.158;2023-04-25T12:35:47;3.15;;;1.30;;
77520;SDS011;66633;47.628;19.158;2023-04-25T12:38:20;2.45;;;1.10;;
77520;SDS011;66633;47.628;19.158;2023-04-25T12:40:45;2.92;;;1.27;;
77520;SDS011;66633;47.628;19.158;2023-04-25T12:43:10;3.27;;;1.40;;
77520;SDS011;66633;47.628;19.158;2023-04-25T12:45:36;2.37;;;1.10;;
77520;SDS011;66633;47.628;19.158;2023-04-25T12:48:01;3.88;;;1.63;;
77520;SDS011;66633;47.628;19.158;2023-04-25T12:50:26;3.45;;;1.00;;
77520;SDS011;66633;47.628;19.158;2023-04-25T12:52:51;2.65;;;1.13;;
77520;SDS011;66633;47.628;19.158;2023-04-25T12:55:17;2.70;;;1.30;;
77520;SDS011;66633;47.628;19.158;2023-04-25T12:57:42;2.70;;;1.40;;
77520;SDS011;66633;47.628;19.158;2023-04-25T13:00:07;2.47;;;1.17;;
77520;SDS011;66633;47.628;19.158;2023-04-25T13:02:35;3.00;;;1.40;;
77520;SDS011;66633;47.628;19.158;2023-04-25T13:05:00;3.63;;;1.77;;
77520;SDS011;66633;47.628;19.158;2023-04-25T13:07:25;3.77;;;1.60;;
77520;SDS011;66633;47.628;19.158;2023-04-25T13:09:50;3.67;;;1.13;;
77520;SDS011;66633;47.628;19.158;2023-04-25T13:12:16;3.13;;;1.30;;
77520;SDS011;66633;47.628;19.158;2023-04-25T13:14:41;1.83;;;1.17;;
77520;SDS011;66633;47.628;19.158;2023-04-25T13:17:07;2.42;;;1.27;;
77520;SDS011;66633;47.628;19.158;2023-04-25T13:19:32;6.07;;;1.87;;
77520;SDS011;66633;47.628;19.158;2023-04-25T13:21:58;2.83;;;1.45;;
77520;SDS011;66633;47.628;19.158;2023-04-25T13:24:23;4.90;;;1.65;;
77520;SDS011;66633;47.628;19.158;2023-04-25T13:26:49;5.57;;;2.38;;
77520;SDS011;66633;47.628;19.158;2023-04-25T13:29:14;5.57;;;2.58;;
77520;SDS011;66633;47.628;19.158;2023-04-25T13:31:39;3.67;;;1.70;;
77520;SDS011;66633;47.628;19.158;2023-04-25T13:34:06;3.00;;;1.38;;
77520;SDS011;66633;47.628;19.158;2023-04-25T13:36:31;3.97;;;1.58;;
77520;SDS011;66633;47.628;19.158;2023-04-25T13:38:56;3.17;;;1.75;;
77520;SDS011;66633;47.628;19.158;2023-04-25T13:41:22;4.30;;;1.70;;
77520;SDS011;66633;47.628;19.158;2023-04-25T13:43:47;2.40;;;1.40;;
77520;SDS011;66633;47.628;19.158;2023-04-25T13:46:12;4.63;;;1.50;;
77520;SDS011;66633;47.628;19.158;2023-04-25T13:48:38;7.40;;;2.20;;
77520;SDS011;66633;47.628;19.158;2023-04-25T13:51:04;2.53;;;1.42;;
77520;SDS011;66633;47.628;19.158;2023-04-25T13:53:29;3.40;;;1.60;;
77520;SDS011;66633;47.628;19.158;2023-04-25T13:55:54;2.92;;;1.55;;
77520;SDS011;66633;47.628;19.158;2023-04-25T13:58:19;3.88;;;1.60;;
77520;SDS011;66633;47.628;19.158;2023-04-25T14:00:45;2.78;;;1.38;;
77520;SDS011;66633;47.628;19.158;2023-04-25T14:03:11;2.92;;;1.50;;
77520;SDS011;66633;47.628;19.158;2023-04-25T14:05:37;3.35;;;1.58;;
77520;SDS011;66633;47.628;19.158;2023-04-25T14:08:04;3.35;;;1.50;;
77520;SDS011;66633;47.628;19.158;2023-04-25T14:10:29;2.80;;;1.42;;
77520;SDS011;66633;47.628;19.158;2023-04-25T14:12:54;4.35;;;1.85;;
77520;SDS011;66633;47.628;19.158;2023-04-25T14:15:30;4.50;;;1.60;;
77520;SDS011;66633;47.628;19.158;2023-04-25T14:18:12;4.95;;;2.00;;
77520;SDS011;66633;47.628;19.158;2023-04-25T14:20:37;4.07;;;1.60;;
77520;SDS011;66633;47.628;19.158;2023-04-25T14:23:02;2.47;;;1.40;;
77520;SDS011;66633;47.628;19.158;2023-04-25T14:25:28;3.67;;;1.70;;
77520;SDS011;66633;47.628;19.158;2023-04-25T14:27:54;4.32;;;1.65;;
77520;SDS011;66633;47.628;19.158;2023-04-25T14:30:20;3.40;;;1.77;;
77520;SDS011;66633;47.628;19.158;2023-04-25T14:32:45;3.35;;;1.80;;
77520;SDS011;66633;47.628;19.158;2023-04-25T14:35:11;3.45;;;1.80;;